createdAt,value
2023-02-09T08:52:15.730Z,97.20
2023-02-09T08:54:45.205Z,97.40
2023-02-09T08:57:11.947Z,97.20
2023-02-09T08:59:38.763Z,97.00
2023-02-09T09:02:05.748Z,97.20
2023-02-09T09:04:32.689Z,97.00
2023-02-09T09:06:59.432Z,96.90
2023-02-09T09:09:26.401Z,96.80
2023-02-09T09:11:53.264Z,96.70
2023-02-09T09:14:19.992Z,96.70
2023-02-09T09:16:46.708Z,96.60
2023-02-09T09:19:13.504Z,96.60
2023-02-09T09:21:40.163Z,96.20
2023-02-09T09:24:07.006Z,96.50
2023-02-09T09:26:34.882Z,96.10
2023-02-09T09:29:01.601Z,96.10
2023-02-09T09:31:28.509Z,96.20
2023-02-09T09:33:55.501Z,95.90
2023-02-09T09:36:22.266Z,96.20
2023-02-09T09:38:49.109Z,96.20
2023-02-09T09:41:29.829Z,96.20
2023-02-09T09:43:57.452Z,96.00
2023-02-09T09:46:38.776Z,95.90
2023-02-09T09:49:06.409Z,95.80
2023-02-09T09:51:48.145Z,96.00
2023-02-09T09:54:21.922Z,96.10
2023-02-09T09:56:50.537Z,95.90
2023-02-09T09:59:22.131Z,95.90
2023-02-09T10:01:51.313Z,95.90
2023-02-09T10:04:19.566Z,95.50
2023-02-09T10:06:49.647Z,95.30
2023-02-09T10:09:28.350Z,94.90
2023-02-09T10:12:35.764Z,94.80
2023-02-09T10:15:27.923Z,94.70
2023-02-09T10:17:56.743Z,94.90
2023-02-09T10:20:49.375Z,95.00
2023-02-09T10:23:21.014Z,94.70
2023-02-09T10:26:07.447Z,94.60
2023-02-09T10:28:41.218Z,94.40
2023-02-09T10:31:24.490Z,94.60
2023-02-09T10:33:59.041Z,94.30
2023-02-09T10:36:32.202Z,94.00
2023-02-09T10:39:15.615Z,93.30
2023-02-09T10:41:44.849Z,93.10
2023-02-09T10:44:28.315Z,92.70
2023-02-09T10:47:27.114Z,92.70
2023-02-09T10:50:13.623Z,91.90
2023-02-09T10:52:57.724Z,92.00
2023-02-09T10:55:37.012Z,92.00
2023-02-09T10:58:27.435Z,91.70
2023-02-09T11:01:08.990Z,91.50
2023-02-09T11:03:37.692Z,91.80
2023-02-09T11:06:13.816Z,91.60
2023-02-09T11:08:56.369Z,91.50
2023-02-09T11:11:35.292Z,91.30
2023-02-09T11:14:03.453Z,90.90
2023-02-09T11:16:52.032Z,90.70
2023-02-09T11:19:22.662Z,90.60
2023-02-09T11:21:59.810Z,90.40
2023-02-09T11:24:54.001Z,90.20
2023-02-09T11:27:42.049Z,90.30
2023-02-09T11:30:45.830Z,90.30
2023-02-09T11:33:46.981Z,90.50
2023-02-09T11:36:52.455Z,90.60
2023-02-09T11:39:30.914Z,90.10
2023-02-09T11:42:26.193Z,89.10
2023-02-09T11:44:58.730Z,87.90
2023-02-09T11:48:09.020Z,87.40
2023-02-09T11:51:00.440Z,87.90
2023-02-09T11:53:30.173Z,88.00
2023-02-09T11:56:00.819Z,87.30
2023-02-09T11:58:48.172Z,86.80
2023-02-09T12:01:42.538Z,86.90
2023-02-09T12:04:22.694Z,88.20
2023-02-09T12:06:53.403Z,88.90
2023-02-09T12:09:51.383Z,89.60
2023-02-09T12:12:44.160Z,89.60
2023-02-09T12:15:16.442Z,90.40
2023-02-09T12:17:54.827Z,90.80
2023-02-09T12:20:36.704Z,91.10
2023-02-09T12:23:16.612Z,90.80
2023-02-09T12:26:01.473Z,90.70
2023-02-09T12:28:28.277Z,91.00
2023-02-09T12:30:57.742Z,91.30
2023-02-09T12:33:24.543Z,91.70
2023-02-09T12:36:27.780Z,91.80
2023-02-09T12:39:04.033Z,92.20
2023-02-09T12:41:34.905Z,92.40
2023-02-09T12:44:06.176Z,92.80
2023-02-09T12:46:32.845Z,93.10
2023-02-09T12:49:11.852Z,93.30
2023-02-09T12:51:54.286Z,93.40
2023-02-09T12:54:44.763Z,93.50
2023-02-09T12:57:17.858Z,93.40
2023-02-09T12:59:50.786Z,93.20
2023-02-09T13:02:38.787Z,93.20
2023-02-09T13:05:25.414Z,93.40
2023-02-09T13:07:55.250Z,93.60
2023-02-09T13:10:22.124Z,93.80
2023-02-09T13:13:21.676Z,93.90
2023-02-09T13:16:23.715Z,94.00
2023-02-09T13:19:08.958Z,94.50
2023-02-09T13:21:48.551Z,94.80
2023-02-09T13:24:18.253Z,94.80
2023-02-09T13:26:52.392Z,94.80
2023-02-09T13:29:22.247Z,95.00
2023-02-09T13:32:04.080Z,94.70
2023-02-09T13:34:37.796Z,94.70
2023-02-09T13:37:22.893Z,94.90
2023-02-09T13:40:00.942Z,95.10
2023-02-09T13:42:31.541Z,95.20
2023-02-09T13:44:59.658Z,95.10
2023-02-09T13:47:28.232Z,95.10
2023-02-09T13:49:57.408Z,95.10
2023-02-09T13:52:26.757Z,94.80
2023-02-09T13:54:54.469Z,94.80
2023-02-09T13:57:29.898Z,94.80
2023-02-09T14:00:12.581Z,94.80
2023-02-09T14:02:39.874Z,95.20
2023-02-09T14:05:08.327Z,95.10
2023-02-09T14:07:37.445Z,94.80
2023-02-09T14:10:14.832Z,95.20
2023-02-09T14:12:51.175Z,95.70
2023-02-09T14:16:04.172Z,96.00
2023-02-09T14:18:32.552Z,96.50
2023-02-09T14:21:10.389Z,97.20
2023-02-09T14:23:38.505Z,97.40
2023-02-09T14:26:30.141Z,97.70
2023-02-09T14:29:05.650Z,98.00
2023-02-09T14:31:35.374Z,98.40
2023-02-09T14:34:02.420Z,98.70
2023-02-09T14:36:34.707Z,98.90
2023-02-09T14:39:20.036Z,99.20
2023-02-09T14:41:56.896Z,99.60
2023-02-09T14:44:24.386Z,99.90
2023-02-09T14:46:51.136Z,99.90
2023-02-09T14:49:19.025Z,99.90
2023-02-09T14:51:46.993Z,99.90
2023-02-09T14:54:25.806Z,99.90
2023-02-09T14:56:54.270Z,99.90
2023-02-09T14:59:22.601Z,99.90
2023-02-09T15:01:52.118Z,99.90
2023-02-09T15:04:19.478Z,99.90
2023-02-09T15:06:50.005Z,99.90
2023-02-09T15:09:24.786Z,99.90
2023-02-09T15:12:07.278Z,99.90
2023-02-09T15:14:40.005Z,99.90
2023-02-09T15:17:18.525Z,99.90
2023-02-09T15:19:46.489Z,99.90
2023-02-09T15:22:16.150Z,99.90
2023-02-09T15:24:47.418Z,99.90
2023-02-09T15:27:53.978Z,99.90
2023-02-09T15:30:25.412Z,99.90
2023-02-09T15:32:52.953Z,99.90
2023-02-09T15:35:23.014Z,99.90
2023-02-09T15:37:53.327Z,99.90
2023-02-09T15:40:41.971Z,99.90
2023-02-09T15:43:36.430Z,99.90
2023-02-09T15:46:22.937Z,99.90
2023-02-09T15:48:49.619Z,99.90
2023-02-09T15:51:16.972Z,99.90
2023-02-09T15:53:44.822Z,99.90
2023-02-09T15:56:13.246Z,99.90
2023-02-09T15:58:44.950Z,99.90
2023-02-09T16:01:14.314Z,99.90
2023-02-09T16:03:41.119Z,99.90
2023-02-09T16:06:18.382Z,99.90
2023-02-09T16:08:46.492Z,99.90
2023-02-09T16:11:27.392Z,99.90
2023-02-09T16:13:55.091Z,99.90
2023-02-09T16:16:24.687Z,99.90
2023-02-09T16:18:51.715Z,99.90
2023-02-09T16:21:29.150Z,99.90
2023-02-09T16:23:58.761Z,99.90
2023-02-09T16:26:28.375Z,99.90
2023-02-09T16:28:55.741Z,99.90
2023-02-09T16:31:23.455Z,99.90
2023-02-09T16:33:51.421Z,99.90
2023-02-09T16:36:20.634Z,99.90
2023-02-09T16:38:47.885Z,99.90
2023-02-09T16:41:35.497Z,99.90
2023-02-09T16:44:12.461Z,99.90
2023-02-09T16:46:39.330Z,99.90
2023-02-09T16:49:06.104Z,99.90
2023-02-09T16:51:34.417Z,99.90
2023-02-09T16:54:01.213Z,99.90
2023-02-09T16:56:30.787Z,99.90
2023-02-09T16:58:57.514Z,99.90
2023-02-09T17:01:24.437Z,99.90
2023-02-09T17:03:54.500Z,99.90
2023-02-09T17:06:24.429Z,99.90
2023-02-09T17:08:51.464Z,99.90
2023-02-09T17:11:21.100Z,99.90
2023-02-09T17:13:48.222Z,99.90
2023-02-09T17:16:33.323Z,99.90
2023-02-09T17:19:02.159Z,99.90
2023-02-09T17:21:35.319Z,99.90
2023-02-09T17:24:04.208Z,99.90
2023-02-09T17:26:31.232Z,99.90
2023-02-09T17:28:58.051Z,99.90
2023-02-09T17:31:27.701Z,99.90
2023-02-09T17:33:57.373Z,99.90
2023-02-09T17:36:27.668Z,99.90
2023-02-09T17:38:59.141Z,99.90
2023-02-09T17:41:31.854Z,99.90
2023-02-09T17:44:20.791Z,99.90
2023-02-09T17:46:54.293Z,99.90
2023-02-09T17:49:21.082Z,99.90
2023-02-09T17:51:48.764Z,99.90
2023-02-09T17:54:17.703Z,99.90
2023-02-09T17:56:45.316Z,99.90
2023-02-09T17:59:13.423Z,99.90
2023-02-09T18:01:43.155Z,99.90
2023-02-09T18:04:17.098Z,99.90
2023-02-09T18:06:43.886Z,99.90
2023-02-09T18:09:12.524Z,99.90
2023-02-09T18:11:45.123Z,99.90
2023-02-09T18:14:16.638Z,99.90
2023-02-09T18:16:44.292Z,99.90
2023-02-09T18:19:11.854Z,99.90
2023-02-09T18:21:39.881Z,99.90
2023-02-09T18:24:07.724Z,99.90
2023-02-09T18:26:34.517Z,99.90
2023-02-09T18:29:01.315Z,99.90
2023-02-09T18:31:28.108Z,99.90
2023-02-09T18:33:54.964Z,99.90
2023-02-09T18:36:21.813Z,99.90
2023-02-09T18:38:49.147Z,99.90
2023-02-09T18:41:15.946Z,99.90
2023-02-09T18:43:42.859Z,99.90
2023-02-09T18:46:13.739Z,99.90
2023-02-09T18:48:40.603Z,99.90
2023-02-09T18:51:08.688Z,99.90
2023-02-09T18:53:37.435Z,99.90
2023-02-09T18:56:04.592Z,99.90
2023-02-09T18:58:31.923Z,99.90
2023-02-09T19:00:58.792Z,99.90
2023-02-09T19:03:25.614Z,99.90
2023-02-09T19:05:52.445Z,99.90
2023-02-09T19:08:19.220Z,99.90
2023-02-09T19:10:46.145Z,99.90
2023-02-09T19:13:13.058Z,99.90
2023-02-09T19:15:40.242Z,99.90
2023-02-09T19:18:07.230Z,99.90
2023-02-09T19:20:34.641Z,99.90
2023-02-09T19:23:02.493Z,99.90
2023-02-09T19:25:30.329Z,99.90
2023-02-09T19:27:57.532Z,99.90
2023-02-09T19:30:25.170Z,99.90
2023-02-09T19:32:57.802Z,99.90
2023-02-09T19:35:25.026Z,99.90
2023-02-09T19:37:53.477Z,99.90
2023-02-09T19:40:28.033Z,99.90
2023-02-09T19:42:56.064Z,99.90
2023-02-09T19:45:24.118Z,99.90
2023-02-09T19:47:51.203Z,99.90
2023-02-09T19:50:18.335Z,99.90
2023-02-09T19:52:47.629Z,99.90
2023-02-09T19:55:14.818Z,99.90
2023-02-09T19:57:42.670Z,99.90
2023-02-09T20:00:14.662Z,99.90
2023-02-09T20:02:41.774Z,99.90
2023-02-09T20:05:09.167Z,99.90
2023-02-09T20:07:36.033Z,99.90
2023-02-09T20:10:03.090Z,99.90
2023-02-09T20:12:30.012Z,99.90
2023-02-09T20:14:56.891Z,99.90
2023-02-09T20:17:23.829Z,99.90
2023-02-09T20:19:50.737Z,99.90
2023-02-09T20:22:18.005Z,99.90
2023-02-09T20:24:44.945Z,99.90
2023-02-09T20:27:12.033Z,99.90
2023-02-09T20:29:39.141Z,99.90
2023-02-09T20:32:06.464Z,99.90
2023-02-09T20:34:33.285Z,99.90
2023-02-09T20:37:00.264Z,99.90
2023-02-09T20:39:27.111Z,99.90
2023-02-09T20:42:17.113Z,99.90
2023-02-09T20:45:02.836Z,99.90
2023-02-09T20:47:32.548Z,99.90
2023-02-09T20:50:00.330Z,99.90
2023-02-09T20:52:28.919Z,99.90
2023-02-09T20:54:56.116Z,99.90
2023-02-09T20:57:29.315Z,99.90
2023-02-09T20:59:57.649Z,99.90
2023-02-09T21:02:25.250Z,99.90
2023-02-09T21:04:55.077Z,99.90
2023-02-09T21:07:21.858Z,99.90
2023-02-09T21:09:48.711Z,99.90
2023-02-09T21:12:15.559Z,99.90
2023-02-09T21:14:45.151Z,99.90
2023-02-09T21:17:13.141Z,99.90
2023-02-09T21:19:40.284Z,99.90
2023-02-09T21:22:07.127Z,99.90
2023-02-09T21:24:33.975Z,99.90
2023-02-09T21:27:00.829Z,99.90
2023-02-09T21:29:31.470Z,99.90
2023-02-09T21:32:01.729Z,99.90
2023-02-09T21:34:28.832Z,99.90
2023-02-09T21:36:55.608Z,99.80
2023-02-09T21:39:22.325Z,99.70
2023-02-09T21:42:07.706Z,99.80
2023-02-09T21:44:37.525Z,99.50
2023-02-09T21:47:04.565Z,98.90
2023-02-09T21:49:31.928Z,98.80
2023-02-09T21:51:59.390Z,98.80
2023-02-09T21:54:28.978Z,98.80
2023-02-09T21:56:55.821Z,98.90
2023-02-09T21:59:22.654Z,98.60
2023-02-09T22:01:49.461Z,98.50
2023-02-09T22:04:16.232Z,98.50
2023-02-09T22:06:43.220Z,98.60
2023-02-09T22:09:10.046Z,98.40
2023-02-09T22:11:36.811Z,98.50
2023-02-09T22:14:04.251Z,98.40
2023-02-09T22:16:31.190Z,98.50
2023-02-09T22:18:59.747Z,98.40
2023-02-09T22:21:26.659Z,98.40
2023-02-09T22:23:53.674Z,98.30
2023-02-09T22:26:21.899Z,98.30
2023-02-09T22:28:48.812Z,98.20
2023-02-09T22:31:20.782Z,98.20
2023-02-09T22:33:48.534Z,98.10
2023-02-09T22:36:18.004Z,98.30
2023-02-09T22:38:45.250Z,98.20
2023-02-09T22:41:21.614Z,98.30
2023-02-09T22:43:59.700Z,98.10
2023-02-09T22:46:31.970Z,98.10
2023-02-09T22:49:01.139Z,98.10
2023-02-09T22:51:30.352Z,97.90
2023-02-09T22:53:58.180Z,98.00
2023-02-09T22:56:25.978Z,97.90
2023-02-09T22:58:53.860Z,97.90
2023-02-09T23:01:23.556Z,98.10
2023-02-09T23:03:50.626Z,98.30
2023-02-09T23:06:20.720Z,98.40
2023-02-09T23:08:47.675Z,98.20
2023-02-09T23:11:16.986Z,98.40
2023-02-09T23:13:44.125Z,98.40
2023-02-09T23:16:19.845Z,98.40
2023-02-09T23:18:58.917Z,98.50
2023-02-09T23:21:31.668Z,98.60
2023-02-09T23:23:58.882Z,98.50
2023-02-09T23:26:26.597Z,98.40
2023-02-09T23:28:59.423Z,98.30
2023-02-09T23:31:27.163Z,98.40
2023-02-09T23:33:54.200Z,98.40
2023-02-09T23:36:26.146Z,98.40
2023-02-09T23:39:00.913Z,98.50
2023-02-09T23:41:28.297Z,98.40
2023-02-09T23:43:55.986Z,98.30
2023-02-09T23:46:26.727Z,98.10
2023-02-09T23:48:55.697Z,98.00
2023-02-09T23:51:28.552Z,98.00
2023-02-09T23:53:57.115Z,98.10
2023-02-09T23:56:24.248Z,97.80
2023-02-09T23:58:52.625Z,97.80
